Latest Weather Observations for Orbost

IDV60801

Issued at 5:05 pm EST Wednesday 16 April 2014 (issued every 30 minutes, with the page automatically refreshed every 10 minutes)

About weather observations | Map of weather stations | Latest weather observations for VIC | Other Formats
Station Details ID: 084145 Name: ORBOST Lat: -37.69 Lon: 148.47 Height: 62.65 m
Data from the previous 72 hours. | See also: Recent months at Orbost
Date/Time
EST
Temp
°C
App
Temp
°C
Dew
Point
Rel
Hum
%
Delta-T
°C
Wind Press
QNH
hPa
Press
MSL
hPa
Rain
since 9 am
mm
Dir
 
Spd
km/h
Gust
km/h
Spd
kts
Gust
kts
16/05:00pm 16.5 15.9 11.6 73 2.7 ESE 6 11 3 6 1019.3 1019.3 0.0
16/04:30pm 17.1 16.2 11.2 68 3.2 SE 7 11 4 6 1019.3 - 0.0
16/04:00pm 17.3 16.2 10.7 65 3.5 SSE 7 15 4 8 1019.2 1019.1 0.0
16/03:30pm 17.7 15.9 9.6 59 4.3 SSE 9 17 5 9 1019.4 - 0.0
16/03:00pm 17.9 16.4 9.0 56 4.6 SSE 7 15 4 8 1019.5 1019.5 0.0
16/02:30pm 17.4 15.9 9.3 59 4.2 SSE 7 13 4 7 1019.6 - 0.0
16/02:00pm 18.1 16.0 9.7 58 4.4 SSE 11 19 6 10 1019.6 1019.6 0.0
16/01:30pm 18.1 16.3 10.7 62 4.0 S 11 17 6 9 1019.7 - 0.0
16/01:00pm 18.7 17.6 10.0 57 4.6 SSE 6 11 3 6 1019.9 1019.9 0.0
16/12:30pm 18.6 17.8 11.2 62 4.0 SSE 6 15 3 8 1020.3 - 0.0
16/12:00pm 18.1 18.0 10.7 62 4.0 SW 2 7 1 4 1020.6 1020.6 0.0
16/11:30am 18.4 17.9 11.9 66 3.6 E 6 9 3 5 1021.1 - 0.0
16/11:00am 17.3 17.2 10.9 66 3.4 S 2 6 1 3 1021.5 1021.5 0.0
16/10:30am 17.1 17.3 11.8 71 2.9 W 2 6 1 3 1021.6 - 0.0
16/10:00am 16.1 15.3 11.1 72 2.7 NNW 6 9 3 5 1021.9 1021.9 0.0
16/09:30am 14.7 13.9 10.9 78 2.0 NW 6 9 3 5 1022.3 - 0.0
16/09:00am 13.1 12.3 11.0 87 1.1 N 6 9 3 5 1022.5 1022.5 4.0
16/08:30am 11.9 11.9 11.1 95 0.4 NE 2 4 1 2 1022.8 - 4.0
16/08:00am 10.7 9.8 10.5 99 0.1 NNW 6 9 3 5 1022.6 1022.6 4.0
16/07:30am 9.1 8.5 9.0 99 0.0 N 2 6 1 3 1022.6 - 4.0
16/07:00am 7.8 6.1 7.7 99 0.0 NNW 6 7 3 4 1022.3 1022.3 4.0
16/06:30am 8.8 8.1 8.7 99 0.0 NNE 2 4 1 2 1022.1 - 4.0
16/06:00am 8.5 8.1 8.4 99 0.0 N 0 6 0 3 1022.0 1022.0 3.8
16/05:30am 7.9 5.6 7.6 98 0.1 N 9 9 5 5 1021.9 - 3.8
16/05:00am 7.7 6.3 7.4 98 0.1 N 4 6 2 3 1021.9 1021.9 3.8
16/04:30am 9.2 8.6 8.9 98 0.1 ENE 2 2 1 1 1021.9 - 3.8
16/04:00am 9.3 9.1 9.0 98 0.1 CALM 0 0 0 0 1022.0 1022.0 3.8
16/03:30am 9.5 9.3 9.2 98 0.1 CALM 0 0 0 0 1022.1 - 3.8
16/03:00am 10.1 10.1 9.8 98 0.2 CALM 0 0 0 0 1022.1 1022.1 3.8
16/02:30am 10.1 9.7 9.6 97 0.3 N 2 4 1 2 1022.2 - 3.8
16/02:00am 11.0 9.9 10.7 98 0.2 N 7 9 4 5 1022.4 1022.4 3.8
16/01:30am 10.6 10.4 10.3 98 0.2 N 2 4 1 2 1022.7 - 3.6
16/01:00am 11.2 10.7 10.9 98 0.2 N 4 7 2 4 1023.1 1023.1 3.6
16/12:30am 11.7 10.8 11.4 98 0.2 N 7 9 4 5 1023.1 - 3.6
16/12:00am 11.7 10.8 11.4 98 0.2 N 7 7 4 4 1023.4 1023.4 3.6
 
Date/Time
EST
Temp
°C
App
Temp
°C
Dew
Point
Rel
Hum
%
Delta-T
°C
Wind Press
QNH
hPa
Press
MSL
hPa
Rain
since 9 am
mm
Dir
 
Spd
km/h
Gust
km/h
Spd
kts
Gust
kts
15/11:30pm 11.9 11.3 11.6 98 0.2 N 6 7 3 4 1023.6 - 3.6
15/11:00pm 12.1 11.5 11.8 98 0.2 N 6 7 3 4 1024.0 1023.9 3.6
15/10:30pm 12.8 12.8 12.5 98 0.2 NNW 4 6 2 3 1024.3 - 3.6
15/10:00pm 13.1 13.5 12.6 97 0.3 W 2 4 1 2 1024.4 1024.3 3.6
15/09:30pm 12.9 13.3 12.4 97 0.3 W 2 4 1 2 1024.3 - 3.6
15/09:00pm 13.4 14.3 12.9 97 0.3 CALM 0 0 0 0 1024.1 1024.0 3.6
15/08:30pm 13.8 14.8 13.3 97 0.3 CALM 0 0 0 0 1024.1 - 3.6
15/08:00pm 13.8 14.8 13.3 97 0.3 CALM 0 0 0 0 1024.0 1023.9 3.6
15/07:30pm 13.8 14.8 13.2 96 0.3 CALM 0 0 0 0 1024.0 - 3.6
15/07:00pm 13.9 14.9 13.3 96 0.3 CALM 0 0 0 0 1024.0 1023.9 3.6
15/06:30pm 14.1 15.1 13.3 95 0.4 CALM 0 0 0 0 1023.6 - 3.6
15/06:00pm 14.2 15.2 13.1 93 0.6 CALM 0 0 0 0 1023.4 1023.4 3.6
15/05:30pm 14.6 15.7 13.5 93 0.6 CALM 0 0 0 0 1023.3 - 3.6
15/05:00pm 14.9 15.9 13.3 90 0.9 CALM 0 0 0 0 1023.2 1023.2 3.6
15/04:30pm 15.4 16.4 13.1 86 1.3 CALM 0 0 0 0 1022.9 - 3.6
15/04:00pm 15.5 16.1 13.0 85 1.4 S 2 4 1 2 1023.0 1023.0 3.6
15/03:30pm 15.5 16.5 13.2 86 1.3 CALM 0 0 0 0 1023.0 - 3.6
15/03:00pm 15.4 16.5 13.4 88 1.1 CALM 0 4 0 2 1023.0 1023.0 3.6
15/02:30pm 15.2 15.8 13.1 87 1.2 SSE 2 6 1 3 1023.0 - 3.6
15/02:00pm 15.2 15.5 13.4 89 1.0 SSE 4 6 2 3 1023.0 1023.0 3.6
15/01:30pm 14.9 15.7 13.8 93 0.6 SSW 2 6 1 3 1022.9 - 3.6
15/01:00pm 14.2 14.2 13.6 96 0.3 WSW 6 7 3 4 1023.3 1023.3 3.6
15/12:30pm 13.9 13.8 13.3 96 0.3 W 6 9 3 5 1023.5 - 3.2
15/12:00pm 14.1 13.9 13.5 96 0.3 W 7 11 4 6 1024.0 1023.9 2.4
15/11:30am 13.9 14.1 13.0 94 0.5 W 4 6 2 3 1024.4 - 1.6
15/11:00am 13.9 14.0 12.6 92 0.7 W 4 7 2 4 1024.5 1024.4 1.6
15/10:30am 13.5 12.5 12.4 93 0.6 NW 9 11 5 6 1024.3 - 1.6
15/10:00am 13.1 13.0 12.0 93 0.6 NW 4 11 2 6 1024.5 1024.4 1.4
15/09:30am 13.4 12.3 11.8 90 0.9 WNW 9 13 5 7 1024.3 - 0.6
15/09:00am 14.6 13.7 11.4 81 1.7 NW 7 13 4 7 1024.1 1024.0 0.0
15/08:30am 14.3 13.3 10.9 80 1.8 NNW 7 11 4 6 1024.1 - 0.0
15/08:00am 13.8 13.0 11.7 87 1.1 NNW 7 9 4 5 1024.0 1023.9 0.0
15/07:30am 13.3 13.0 11.5 89 1.0 S 4 7 2 4 1024.0 - 0.0
15/07:00am 13.4 12.5 10.8 84 1.4 N 6 7 3 4 1023.5 1023.5 0.0
15/06:30am 13.3 12.2 10.7 84 1.4 N 7 9 4 5 1023.1 - 0.0
15/06:00am 13.0 12.2 11.1 88 1.0 NNW 6 6 3 3 1022.9 1022.9 0.0
15/05:30am 13.0 12.7 11.4 90 0.8 NNW 4 6 2 3 1023.0 - 0.0
15/05:00am 12.9 12.2 11.5 91 0.7 NNW 6 7 3 4 1022.8 1022.8 0.0
15/04:30am 13.0 12.7 11.6 91 0.7 NW 4 6 2 3 1022.8 - 0.0
15/04:00am 13.1 13.3 11.7 91 0.7 N 2 4 1 2 1022.7 1022.7 0.0
15/03:30am 13.0 13.1 11.4 90 0.8 N 2 6 1 3 1022.8 - 0.0
15/03:00am 13.0 12.7 11.4 90 0.8 SSE 4 4 2 2 1022.9 1022.9 0.0
15/02:30am 13.0 13.0 11.1 88 1.0 WNW 2 4 1 2 1023.0 - 0.0
15/02:00am 12.9 12.9 11.0 88 1.0 NW 2 4 1 2 1023.1 1023.1 0.0
15/01:30am 13.1 12.7 11.0 87 1.1 NW 4 6 2 3 1023.3 - 0.0
15/01:00am 13.1 12.6 10.8 86 1.2 NNW 4 6 2 3 1023.4 1023.4 0.0
15/12:30am 12.9 12.8 10.8 87 1.1 NW 2 4 1 2 1023.4 - 0.0
15/12:00am 12.8 12.7 10.7 87 1.1 NW 2 4 1 2 1023.4 1023.4 0.0
 
Date/Time
EST
Temp
°C
App
Temp
°C
Dew
Point
Rel
Hum
%
Delta-T
°C
Wind Press
QNH
hPa
Press
MSL
hPa
Rain
since 9 am
mm
Dir
 
Spd
km/h
Gust
km/h
Spd
kts
Gust
kts
14/11:30pm 13.0 12.8 10.4 84 1.4 N 2 4 1 2 1023.4 - 0.0
14/11:00pm 13.3 12.0 10.1 81 1.6 N 7 9 4 5 1023.5 1023.5 0.0
14/10:30pm 12.8 11.7 10.0 83 1.4 N 6 6 3 3 1023.6 - 0.0
14/10:00pm 11.1 9.7 9.0 87 1.0 NNW 6 7 3 4 1023.7 1023.7 0.0
14/09:30pm 12.7 11.4 9.2 79 1.8 N 6 7 3 4 1024.0 - 0.0
14/09:00pm 13.3 12.1 9.5 78 1.9 N 6 7 3 4 1024.0 1023.9 0.0
14/08:30pm 13.7 12.7 10.3 80 1.8 N 6 7 3 4 1023.9 - 0.0
14/08:00pm 13.2 12.4 10.9 86 1.2 N 6 6 3 3 1023.9 1023.8 0.0
14/07:30pm 14.4 12.9 9.2 71 2.7 ESE 7 11 4 6 1024.1 - 0.0
14/07:00pm 14.6 13.8 9.8 73 2.5 ESE 4 7 2 4 1023.7 1023.7 0.0
14/06:30pm 14.9 14.4 10.7 76 2.2 SSE 4 7 2 4 1023.3 - 0.0
14/06:00pm 14.9 14.8 10.9 77 2.1 SSW 2 4 1 2 1022.9 1022.9 0.0
14/05:30pm 15.3 14.8 10.9 75 2.3 W 4 6 2 3 1022.7 - 0.0
14/05:00pm 15.7 14.8 10.7 72 2.6 SW 6 7 3 4 1022.5 1022.5 0.0
14/04:30pm 16.2 15.0 11.6 74 2.5 SW 9 13 5 7 1022.4 - 0.0
14/04:00pm 16.7 14.9 11.0 69 3.1 SW 11 19 6 10 1022.3 1022.3 0.0
14/03:30pm 17.4 15.9 9.1 58 4.3 SSW 7 11 4 6 1022.4 - 0.0
14/03:00pm 17.6 15.9 8.2 54 4.8 SW 7 11 4 6 1022.3 1022.3 0.0
14/02:30pm 17.3 15.7 7.9 54 4.8 S 6 9 3 5 1022.3 - 0.0
14/02:00pm 17.3 15.4 7.6 53 4.9 SSW 7 13 4 7 1022.4 1022.4 0.0
14/01:30pm 17.7 15.9 8.0 53 5.0 S 7 11 4 6 1022.4 - 0.0
14/01:00pm 18.1 16.3 7.8 51 5.2 SSE 7 13 4 7 1022.6 1022.6 0.0
14/12:30pm 18.3 16.7 8.6 53 5.0 SSE 7 13 4 7 1022.9 - 0.0
14/12:00pm 17.9 16.5 9.0 56 4.6 SSE 6 11 3 6 1023.3 1023.3 0.0
14/11:30am 17.2 15.6 8.6 57 4.4 SE 7 13 4 7 1023.5 - 0.0
14/11:00am 16.8 15.6 9.5 62 3.8 SSE 6 11 3 6 1023.7 1023.7 0.0
14/10:30am 16.3 15.8 10.8 70 2.9 SSW 4 7 2 4 1023.9 - 0.0
14/10:00am 16.4 15.9 12.2 76 2.3 WNW 6 9 3 5 1023.9 1023.8 0.0
14/09:30am 15.2 14.8 12.5 84 1.5 W 6 9 3 5 1024.0 - 0.0
14/09:00am 14.2 14.3 12.6 90 0.9 WNW 4 6 2 3 1023.9 1023.8 0.6
14/08:30am 13.7 13.3 12.3 91 0.8 NW 6 9 3 5 1023.6 - 0.6
14/08:00am 13.1 12.6 12.2 94 0.5 NNW 6 11 3 6 1023.4 1023.4 0.6
14/07:30am 12.3 12.1 11.8 97 0.3 N 4 6 2 3 1023.3 - 0.6
14/07:00am 11.4 10.6 10.9 97 0.3 N 6 9 3 5 1022.9 1022.9 0.6
14/06:30am 11.6 10.8 11.0 96 0.3 NNW 6 7 3 4 1022.6 - 0.6
14/06:00am 11.9 11.0 11.4 97 0.3 N 7 11 4 6 1022.6 1022.6 0.6
14/05:30am 11.7 10.9 11.2 97 0.3 NW 6 7 3 4 1022.6 - 0.6
14/05:00am 11.6 11.6 11.1 97 0.3 W 2 4 1 2 1022.5 1022.5 0.6
14/04:30am 11.6 11.6 11.1 97 0.3 NW 2 4 1 2 1022.3 - 0.6
14/04:00am 11.8 11.1 11.3 97 0.3 NNW 6 7 3 4 1022.0 1022.0 0.6
14/03:30am 12.1 11.5 11.6 97 0.3 NNW 6 7 3 4 1021.9 - 0.6
14/03:00am 12.2 11.9 11.6 96 0.3 NNW 4 4 2 2 1022.2 1022.2 0.4
14/02:30am 12.1 11.8 11.5 96 0.3 WNW 4 4 2 2 1022.3 - 0.2
14/02:00am 12.4 13.0 11.8 96 0.3 CALM 0 4 0 2 1022.4 1022.4 0.2
14/01:30am 12.1 11.2 11.5 96 0.3 N 7 9 4 5 1022.3 - 0.2
14/01:00am 11.5 10.4 10.7 95 0.4 N 7 7 4 4 1022.3 1022.3 0.2
14/12:30am 12.0 11.6 11.1 94 0.5 WSW 4 7 2 4 1022.3 - 0.2
14/12:00am 12.0 11.5 10.7 92 0.7 NNW 4 6 2 3 1022.3 1022.3 0.2
 
Date/Time
EST
Temp
°C
App
Temp
°C
Dew
Point
Rel
Hum
%
Delta-T
°C
Wind Press
QNH
hPa
Press
MSL
hPa
Rain
since 9 am
mm
Dir
 
Spd
km/h
Gust
km/h
Spd
kts
Gust
kts
13/11:30pm 12.5 12.1 11.2 92 0.7 N 4 7 2 4 1022.4 - 0.2
13/11:00pm 12.1 11.3 11.0 93 0.6 N 6 7 3 4 1022.5 1022.5 0.2
13/10:30pm 11.8 10.9 10.5 92 0.7 N 6 7 3 4 1022.7 - 0.2
13/10:00pm 12.0 10.9 10.7 92 0.7 N 7 7 4 4 1022.7 1022.7 0.2
13/09:30pm 11.7 10.8 10.6 93 0.6 N 6 7 3 4 1022.8 - 0.2
13/09:00pm 11.5 10.5 10.2 92 0.7 N 6 6 3 3 1022.7 1022.7 0.2
13/08:30pm 12.3 11.7 10.5 89 0.9 N 4 4 2 2 1022.5 - 0.2
13/08:00pm 12.7 12.2 10.8 88 1.0 N 4 4 2 2 1022.3 1022.3 0.2
13/07:30pm 13.2 13.2 11.3 88 1.0 NW 2 4 1 2 1022.1 - 0.2
13/07:00pm 14.1 14.4 10.9 81 1.7 CALM 0 0 0 0 1021.8 1021.8 0.2
13/06:30pm 14.7 15.0 10.9 78 2.0 CALM 0 0 0 0 1021.6 - 0.2
13/06:00pm 15.0 15.5 11.6 80 1.8 CALM 0 0 0 0 1021.3 1021.3 0.2
13/05:30pm 15.2 14.8 11.0 76 2.2 S 4 7 2 4 1021.0 - 0.2

Other Formats:

Comma delimited format used in spreadsheet applications
http://www.bom.gov.au/fwo/IDV60801/IDV60801.95918.axf

JavaScript Object Notation format (JSON) in row-major order
http://www.bom.gov.au/fwo/IDV60801/IDV60801.95918.json